Time;durP1;ratioP1;P1;durP2;ratioP2;P2;SDS_P1;SDS_P2;PMS_P1;PMS_P2;Temp;Humidity;BMP_temperature;BMP_pressure;BME280_temperature;BME280_humidity;BME280_pressure;Samples;Min_cycle;Max_cycle;Signal;HPM_P1;HPM_P2
2022/01/12 00:00:44;;;;;;;30.00;15.73;;;;;;;0.82;100.00;103543.44;5052744;28;20033;-82
2022/01/12 00:03:10;;;;;;;25.25;15.48;;;;;;;0.88;100.00;103556.66;5052574;28;20033;-82
2022/01/12 00:05:35;;;;;;;29.00;15.40;;;;;;;0.92;100.00;103565.44;5052314;28;20021;-82
2022/01/12 00:08:01;;;;;;;24.30;14.80;;;;;;;0.97;100.00;103566.56;5052661;28;20473;-82
2022/01/12 00:10:26;;;;;;;28.88;15.70;;;;;;;1.01;100.00;103562.50;5052341;28;20029;-82
2022/01/12 00:12:51;;;;;;;26.67;15.77;;;;;;;1.02;100.00;103572.88;5043549;28;20029;-82
2022/01/12 00:15:16;;;;;;;31.23;15.70;;;;;;;1.03;100.00;103569.50;5045026;28;20044;-82
2022/01/12 00:17:42;;;;;;;26.88;15.23;;;;;;;1.08;100.00;103575.81;5052976;28;20515;-82
2022/01/12 00:20:08;;;;;;;28.65;15.85;;;;;;;1.10;100.00;103574.22;5052767;28;20025;-82
2022/01/12 00:22:34;;;;;;;29.42;15.35;;;;;;;1.12;100.00;103575.19;5051948;28;20032;-82
2022/01/12 00:33:10;;;;;;;24.48;14.40;;;;;;;1.18;100.00;103577.25;5052453;28;20098;-83
2022/01/12 00:35:37;;;;;;;29.00;15.77;;;;;;;1.21;100.00;103581.66;5051151;28;20510;-82
2022/01/12 00:38:02;;;;;;;27.20;15.73;;;;;;;1.21;100.00;103591.94;5050727;28;20033;-82
2022/01/12 00:40:28;;;;;;;27.60;16.35;;;;;;;1.23;100.00;103590.34;5052152;28;20378;-82
2022/01/12 00:42:53;;;;;;;28.70;15.70;;;;;;;1.25;100.00;103592.22;5051880;28;20040;-82
2022/01/12 00:45:20;;;;;;;30.05;15.77;;;;;;;1.25;100.00;103599.94;5050985;28;20021;-82
2022/01/12 00:47:46;;;;;;;30.27;16.50;;;;;;;1.26;100.00;103605.97;5052205;28;20370;-82
2022/01/12 00:50:11;;;;;;;27.85;15.48;;;;;;;1.26;100.00;103616.25;5051908;28;20035;-82
2022/01/12 00:52:37;;;;;;;28.83;15.90;;;;;;;1.22;100.00;103615.19;5050189;28;20032;-82
2022/01/12 00:55:03;;;;;;;27.33;16.42;;;;;;;1.20;100.00;103621.00;5050883;28;20020;-82
2022/01/12 00:57:28;;;;;;;31.10;17.23;;;;;;;1.14;100.00;103621.53;5050210;28;20472;-82
2022/01/12 00:59:53;;;;;;;31.67;18.23;;;;;;;1.10;100.00;103620.47;5051241;28;20037;-82
2022/01/12 01:02:19;;;;;;;32.75;17.95;;;;;;;1.09;100.00;103625.53;5052153;28;20108;-82
2022/01/12 01:04:44;;;;;;;31.95;17.75;;;;;;;1.06;100.00;103628.78;5050154;28;20037;-82
2022/01/12 01:07:09;;;;;;;31.75;18.90;;;;;;;1.05;100.00;103629.59;5051415;28;20025;-82
2022/01/12 01:09:39;;;;;;;34.75;18.52;;;;;;;1.03;100.00;103627.72;5051622;28;20033;-82
2022/01/12 01:12:05;;;;;;;31.20;18.70;;;;;;;0.99;100.00;103639.50;5051095;28;20036;-82
2022/01/12 01:14:46;;;;;;;33.38;18.75;;;;;;;0.93;100.00;103645.13;5050027;28;20054;-83
2022/01/12 01:25:29;;;;;;;38.47;19.70;;;;;;;0.89;100.00;103640.63;5031828;28;20091;-82
2022/01/12 01:25:36;;;;;;;;;;;;;;;0.92;100.00;103632.22;5050788;28;20051;-83
2022/01/12 01:28:03;;;;;;;34.67;19.23;;;;;;;0.89;100.00;103624.31;5051326;28;20344;-83
2022/01/12 01:30:29;;;;;;;42.03;22.02;;;;;;;0.85;100.00;103622.34;5050502;28;20048;-83
2022/01/12 01:32:57;;;;;;;41.42;22.42;;;;;;;0.81;100.00;103610.13;5050474;28;20521;-83
2022/01/12 01:35:26;;;;;;;43.30;22.50;;;;;;;0.77;100.00;103616.75;5051399;28;20025;-82
2022/01/12 01:37:51;;;;;;;44.50;22.25;;;;;;;0.74;100.00;103620.81;5051512;28;20025;-83
2022/01/12 01:40:17;;;;;;;42.88;23.38;;;;;;;0.73;100.00;103634.44;5050705;28;20032;-83
2022/01/12 01:43:15;;;;;;;43.30;23.45;;;;;;;0.70;100.00;103638.59;5051448;28;20021;-82
2022/01/12 01:54:03;;;;;;;45.95;23.63;;;;;;;0.82;100.00;103658.13;5050402;28;20599;-82
2022/01/12 01:56:28;;;;;;;45.95;24.17;;;;;;;0.81;100.00;103646.94;5051066;28;20021;-82
2022/01/12 01:58:55;;;;;;;49.47;23.92;;;;;;;0.82;100.00;103638.47;5049589;28;20028;-82
2022/01/12 02:01:20;;;;;;;44.38;23.25;;;;;;;0.80;100.00;103610.91;5050919;28;20040;-82
2022/01/12 02:03:45;;;;;;;48.65;23.77;;;;;;;0.78;100.00;103610.81;5050361;28;20025;-82
2022/01/12 02:06:11;;;;;;;47.40;24.65;;;;;;;0.76;100.00;103614.97;5050776;28;20067;-82
2022/01/12 02:08:37;;;;;;;47.63;25.00;;;;;;;0.73;100.00;103601.06;5050061;28;20056;-82
2022/01/12 02:11:03;;;;;;;47.90;24.17;;;;;;;0.72;100.00;103599.28;5051181;28;20067;-82
2022/01/12 02:13:29;;;;;;;46.15;23.83;;;;;;;0.67;100.00;103602.47;5049176;28;20104;-82
2022/01/12 02:15:56;;;;;;;50.65;25.58;;;;;;;0.66;100.00;103605.81;5050022;28;20044;-82
2022/01/12 02:35:15;;;;;;;42.90;23.77;;;;;;;0.72;100.00;103628.44;5050603;28;20086;-82
2022/01/12 02:40:37;;;;;;;53.03;26.08;;;;;;;0.74;100.00;103642.25;5031454;28;20493;-82
2022/01/12 02:43:38;;;;;;;52.75;25.73;;;;;;;0.77;100.00;103647.56;5039215;28;20025;-82
2022/01/12 02:53:47;;;;;;;59.00;25.80;;;;;;;0.82;100.00;103650.44;5053939;28;20082;-82
2022/01/12 02:56:16;;;;;;;58.97;26.50;;;;;;;0.84;100.00;103651.41;5053725;28;20032;-82
2022/01/12 02:58:43;;;;;;;51.50;26.63;;;;;;;0.82;100.00;103653.00;5053783;28;20047;-82
2022/01/12 03:03:56;;;;;;;53.00;27.00;;;;;;;0.82;100.00;103660.72;5053597;28;20041;-82
2022/01/12 03:06:26;;;;;;;51.90;25.60;;;;;;;0.82;100.00;103659.03;5052053;28;20108;-82
2022/01/12 03:08:52;;;;;;;50.17;25.60;;;;;;;0.84;100.00;103664.25;5054099;28;20059;-82
2022/01/12 03:11:19;;;;;;;58.00;27.52;;;;;;;0.82;100.00;103676.13;5052942;28;20159;-82
2022/01/12 03:13:45;;;;;;;54.42;28.08;;;;;;;0.82;100.00;103676.13;5052472;28;20443;-82
2022/01/12 03:16:16;;;;;;;52.60;27.52;;;;;;;0.81;100.00;103688.03;5054097;28;20032;-82
2022/01/12 03:18:43;;;;;;;58.78;28.48;;;;;;;0.83;100.00;103691.59;5053101;28;20060;-82
2022/01/12 03:21:09;;;;;;;58.75;29.02;;;;;;;0.82;100.00;103697.53;5053803;28;20029;-82
2022/01/12 03:23:35;;;;;;;63.17;27.90;;;;;;;0.81;100.00;103703.44;5054009;28;20021;-82
2022/01/12 03:26:00;;;;;;;55.50;27.98;;;;;;;0.81;100.00;103702.56;5052562;28;20091;-82
2022/01/12 03:28:26;;;;;;;61.47;28.70;;;;;;;0.80;100.00;103711.06;5052893;28;20102;-82
2022/01/12 03:31:02;;;;;;;58.53;29.30;;;;;;;0.77;100.00;103698.03;5053741;28;20388;-83
2022/01/12 03:33:39;;;;;;;51.25;26.95;;;;;;;0.80;100.00;103701.69;5052030;28;20511;-82
2022/01/12 03:36:23;;;;;;;60.92;28.45;;;;;;;0.81;100.00;103694.88;5053318;28;20043;-82
2022/01/12 03:38:50;;;;;;;57.88;27.75;;;;;;;0.81;100.00;103700.00;5053360;28;20387;-83
2022/01/12 03:41:16;;;;;;;57.88;28.77;;;;;;;0.84;100.00;103693.38;5051670;28;20473;-82
2022/01/12 03:43:42;;;;;;;59.42;29.70;;;;;;;0.87;100.00;103692.69;5052265;28;20025;-82
2022/01/12 03:46:07;;;;;;;59.00;28.50;;;;;;;0.86;100.00;103683.22;5052460;28;20029;-82
2022/01/12 03:48:33;;;;;;;68.53;29.67;;;;;;;0.89;100.00;103686.84;5052733;28;20528;-82
2022/01/12 03:50:58;;;;;;;63.47;28.90;;;;;;;0.84;100.00;103666.81;5053191;28;20445;-82
2022/01/12 03:53:23;;;;;;;62.65;30.38;;;;;;;0.87;100.00;103685.84;5052902;28;20032;-82
2022/01/12 03:55:49;;;;;;;67.53;30.02;;;;;;;0.85;100.00;103681.41;5051837;28;20575;-82
2022/01/12 03:58:14;;;;;;;59.65;29.55;;;;;;;0.85;100.00;103689.13;5052814;28;20492;-82
2022/01/12 04:00:40;;;;;;;62.85;31.08;;;;;;;0.84;100.00;103698.50;5051383;28;20029;-82
2022/01/12 04:03:07;;;;;;;71.22;31.40;;;;;;;0.80;100.00;103709.38;5052581;28;20469;-83
2022/01/12 04:08:21;;;;;;;76.55;33.28;;;;;;;0.75;100.00;103718.47;5051430;28;20045;-83
2022/01/12 04:10:51;;;;;;;74.07;32.33;;;;;;;0.74;100.00;103710.69;5052909;28;20016;-82
2022/01/12 04:13:18;;;;;;;66.75;31.38;;;;;;;0.76;100.00;103720.28;5051629;28;20059;-83
2022/01/12 04:15:46;;;;;;;71.15;32.08;;;;;;;0.75;100.00;103715.91;5052239;28;20025;-82
2022/01/12 04:18:12;;;;;;;70.13;31.77;;;;;;;0.75;100.00;103725.28;5052294;28;20053;-83
2022/01/12 04:20:44;;;;;;;74.97;33.55;;;;;;;0.75;100.00;103715.03;5052556;28;20439;-82
2022/01/12 04:23:18;;;;;;;72.15;33.00;;;;;;;0.74;100.00;103710.69;5052025;28;20465;-82
2022/01/12 04:25:49;;;;;;;75.30;34.25;;;;;;;0.74;100.00;103711.56;5052463;28;20021;-82
2022/01/12 04:28:16;;;;;;;82.30;34.17;;;;;;;0.78;100.00;103725.50;5049463;28;20503;-82
2022/01/12 04:30:41;;;;;;;74.22;35.17;;;;;;;0.80;100.00;103723.91;5052093;28;20102;-83
2022/01/12 04:33:07;;;;;;;74.60;34.20;;;;;;;0.80;100.00;103716.22;5052164;28;20461;-82
2022/01/12 04:35:54;;;;;;;70.15;33.40;;;;;;;0.84;100.00;103713.03;5051679;28;20020;-82
2022/01/12 04:38:20;;;;;;;76.78;33.55;;;;;;;0.86;100.00;103711.47;5052354;28;20056;-82
2022/01/12 04:40:46;;;;;;;83.35;32.90;;;;;;;0.86;100.00;103706.31;5052173;28;20025;-82
2022/01/12 04:43:12;;;;;;;74.03;33.70;;;;;;;0.88;100.00;103705.63;5050456;28;20140;-82
2022/01/12 04:50:45;;;;;;;73.38;34.30;;;;;;;0.85;100.00;103705.44;5051536;28;20060;-83
2022/01/12 04:53:13;;;;;;;81.88;34.75;;;;;;;0.86;100.00;103720.06;5051982;28;20807;-83
2022/01/12 04:55:38;;;;;;;82.50;36.78;;;;;;;0.84;100.00;103703.66;5051901;28;20029;-82
2022/01/12 04:58:04;;;;;;;77.85;35.03;;;;;;;0.87;100.00;103700.38;5047151;28;20111;-83
2022/01/12 05:00:30;;;;;;;82.70;35.40;;;;;;;0.87;100.00;103696.13;5051638;28;20033;-83
2022/01/12 05:13:39;;;;;;;88.78;35.20;;;;;;;0.84;100.00;103697.63;5051583;28;20040;-83
2022/01/12 05:16:05;;;;;;;84.07;36.83;;;;;;;0.82;100.00;103701.81;5051060;28;20025;-83
2022/01/12 05:18:34;;;;;;;88.47;37.15;;;;;;;0.84;100.00;103707.91;5050657;28;20083;-82
2022/01/12 05:21:01;;;;;;;87.93;37.03;;;;;;;0.82;100.00;103704.38;5051629;28;20021;-83
2022/01/12 05:23:26;;;;;;;84.25;36.40;;;;;;;0.80;100.00;103695.66;5051532;28;20031;-82
2022/01/12 05:25:52;;;;;;;83.10;36.78;;;;;;;0.84;100.00;103701.06;5049368;28;20037;-83
2022/01/12 05:28:18;;;;;;;86.90;37.42;;;;;;;0.86;100.00;103706.31;5050732;28;20061;-82
2022/01/12 05:30:44;;;;;;;87.78;36.55;;;;;;;0.87;100.00;103708.09;5051475;28;20025;-83
2022/01/12 05:33:09;;;;;;;93.43;40.95;;;;;;;0.86;100.00;103701.19;5051053;28;20082;-82
2022/01/12 05:35:35;;;;;;;81.88;36.67;;;;;;;0.89;100.00;103711.66;5049601;28;20100;-83
2022/01/12 05:38:03;;;;;;;86.38;38.63;;;;;;;0.88;100.00;103721.03;5050404;28;20025;-82
2022/01/12 05:40:29;;;;;;;88.97;38.33;;;;;;;0.84;100.00;103716.47;5050859;28;20071;-82
2022/01/12 05:42:55;;;;;;;88.68;38.70;;;;;;;0.87;100.00;103731.22;5051677;28;20025;-83
2022/01/12 05:45:22;;;;;;;84.32;38.40;;;;;;;0.88;100.00;103731.31;5050690;28;20487;-82
2022/01/12 05:50:16;;;;;;;90.03;38.72;;;;;;;0.88;100.00;103730.41;5050173;28;20132;-83
2022/01/12 05:52:42;;;;;;;82.90;36.97;;;;;;;0.89;100.00;103733.09;5051181;28;20120;-82
2022/01/12 05:55:08;;;;;;;89.93;39.30;;;;;;;0.89;100.00;103729.63;5050249;28;20120;-83
2022/01/12 05:57:35;;;;;;;93.90;38.35;;;;;;;0.91;100.00;103728.91;5049624;28;20032;-82
2022/01/12 06:00:03;;;;;;;87.60;37.97;;;;;;;0.92;100.00;103730.72;5030625;28;20030;-82
2022/01/12 06:02:29;;;;;;;96.57;38.85;;;;;;;0.92;100.00;103730.72;5031389;28;20025;-82
2022/01/12 06:04:54;;;;;;;93.05;38.42;;;;;;;0.92;100.00;103723.00;5042948;28;20108;-82
2022/01/12 06:07:19;;;;;;;103.90;41.67;;;;;;;0.93;100.00;103734.16;5050101;28;20047;-82
2022/01/12 06:09:45;;;;;;;95.30;40.63;;;;;;;0.90;100.00;103733.97;5051231;28;20031;-82
2022/01/12 06:12:10;;;;;;;84.85;37.95;;;;;;;0.93;100.00;103739.31;5050706;28;20870;-82
2022/01/12 06:14:36;;;;;;;108.82;40.42;;;;;;;0.93;100.00;103739.31;5049475;28;20029;-82
2022/01/12 06:17:02;;;;;;;88.93;39.08;;;;;;;0.91;100.00;103731.47;5050631;28;20036;-82
2022/01/12 06:19:27;;;;;;;94.88;40.33;;;;;;;0.94;100.00;103735.94;5050992;28;20028;-83
2022/01/12 06:21:52;;;;;;;102.75;40.50;;;;;;;0.95;100.00;103742.88;5050601;28;20032;-82
2022/01/12 06:24:18;;;;;;;93.93;40.17;;;;;;;0.94;100.00;103741.06;5050713;28;20033;-82
2022/01/12 06:26:44;;;;;;;100.63;38.88;;;;;;;0.93;100.00;103755.59;5052391;28;20033;-82
2022/01/12 06:31:40;;;;;;;98.25;39.42;;;;;;;0.88;100.00;103758.66;5054718;28;20102;-82
2022/01/12 06:34:06;;;;;;;93.70;39.05;;;;;;;0.88;100.00;103772.41;5052851;28;20028;-82
2022/01/12 06:36:31;;;;;;;96.70;39.50;;;;;;;0.89;100.00;103765.59;5053832;28;20028;-82
2022/01/12 06:38:57;;;;;;;88.25;39.08;;;;;;;0.90;100.00;103775.06;5054425;28;20027;-82
2022/01/12 06:41:23;;;;;;;102.53;41.88;;;;;;;0.87;100.00;103772.31;5054837;28;20102;-83
2022/01/12 06:43:49;;;;;;;99.80;40.67;;;;;;;0.88;100.00;103792.06;5054021;28;20025;-82
2022/01/12 06:46:17;;;;;;;103.90;42.38;;;;;;;0.87;100.00;103795.41;5053310;28;20047;-83
2022/01/12 06:48:42;;;;;;;100.50;41.05;;;;;;;0.84;100.00;103790.09;5053184;28;20090;-82
2022/01/12 06:51:08;;;;;;;98.65;40.92;;;;;;;0.87;100.00;103800.56;5054157;28;20033;-82
2022/01/12 06:53:33;;;;;;;98.22;40.95;;;;;;;0.89;100.00;103806.69;5054350;28;20101;-83
2022/01/12 06:55:59;;;;;;;104.72;42.35;;;;;;;0.90;100.00;103787.91;5049021;28;20033;-82
2022/01/12 06:58:25;;;;;;;112.80;42.10;;;;;;;0.95;100.00;103791.69;5038712;28;20060;-82
2022/01/12 07:00:50;;;;;;;104.30;41.50;;;;;;;0.97;100.00;103797.78;5053651;28;20031;-82
2022/01/12 07:03:15;;;;;;;110.28;42.67;;;;;;;0.97;100.00;103805.47;5053086;28;20060;-82
2022/01/12 07:05:41;;;;;;;112.50;43.70;;;;;;;0.94;100.00;103802.72;5049208;28;20021;-82
2022/01/12 07:08:06;;;;;;;102.18;40.30;;;;;;;0.96;100.00;103801.16;5053339;28;20040;-83
2022/01/12 07:10:31;;;;;;;97.00;40.15;;;;;;;0.99;100.00;103801.34;5053156;28;20033;-83
2022/01/12 07:12:57;;;;;;;100.65;40.33;;;;;;;0.99;100.00;103808.16;5053053;28;20531;-83
2022/01/12 07:15:22;;;;;;;98.95;40.05;;;;;;;1.01;100.00;103822.88;5053531;28;20493;-83
2022/01/12 07:17:49;;;;;;;102.00;40.35;;;;;;;1.02;100.00;103824.66;5053139;28;20025;-83
2022/01/12 07:20:15;;;;;;;106.20;41.40;;;;;;;0.98;100.00;103815.00;5053442;28;20124;-82
2022/01/12 07:22:40;;;;;;;96.25;40.05;;;;;;;1.01;100.00;103819.41;5052460;28;20039;-82
2022/01/12 07:25:06;;;;;;;99.40;40.72;;;;;;;0.99;100.00;103819.31;5052945;28;20111;-83
2022/01/12 07:27:31;;;;;;;99.13;39.47;;;;;;;0.98;100.00;103816.63;5052400;28;20799;-83
2022/01/12 07:29:56;;;;;;;100.00;40.45;;;;;;;0.99;100.00;103823.59;5053357;28;20028;-83
2022/01/12 07:32:21;;;;;;;102.15;40.33;;;;;;;1.01;100.00;103822.88;5052440;28;20025;-83
2022/01/12 07:34:47;;;;;;;102.05;41.85;;;;;;;1.02;100.00;103822.09;5052667;28;20033;-83
2022/01/12 07:37:12;;;;;;;91.63;38.20;;;;;;;0.98;100.00;103817.56;5050779;28;20078;-83
2022/01/12 07:39:38;;;;;;;102.60;38.80;;;;;;;1.03;100.00;103834.13;5051622;28;20036;-84
2022/01/12 07:42:04;;;;;;;101.78;39.67;;;;;;;1.06;100.00;103848.88;5053053;28;20381;-84
2022/01/12 07:44:30;;;;;;;102.97;41.08;;;;;;;1.05;100.00;103853.13;5053131;28;20382;-84
2022/01/12 07:46:55;;;;;;;102.63;39.58;;;;;;;1.05;100.00;103857.38;5051782;28;20021;-83
2022/01/12 07:49:20;;;;;;;99.38;39.35;;;;;;;1.04;100.00;103856.47;5053467;28;20044;-83
2022/01/12 07:51:45;;;;;;;97.32;39.38;;;;;;;1.04;100.00;103856.47;5052124;28;20029;-83
2022/01/12 07:54:11;;;;;;;99.50;39.60;;;;;;;1.06;100.00;103865.16;5050221;28;20495;-82
2022/01/12 07:56:36;;;;;;;100.63;37.78;;;;;;;1.10;100.00;103868.81;5051728;28;20037;-83
2022/01/12 07:59:01;;;;;;;99.88;37.90;;;;;;;1.12;100.00;103873.28;5052041;28;20048;-83
2022/01/12 08:01:27;;;;;;;104.13;39.70;;;;;;;1.14;100.00;103875.91;5052132;28;20193;-83
2022/01/12 08:03:52;;;;;;;100.85;38.83;;;;;;;1.17;100.00;103873.56;5051658;28;20025;-82
2022/01/12 08:06:17;;;;;;;99.20;39.03;;;;;;;1.14;100.00;103883.63;5053091;28;20072;-83
2022/01/12 08:08:43;;;;;;;102.00;39.47;;;;;;;1.18;100.00;103890.78;5052327;28;20037;-83
2022/01/12 08:11:08;;;;;;;104.85;39.47;;;;;;;1.21;100.00;103890.06;5052673;28;20029;-83
2022/01/12 08:13:33;;;;;;;108.75;39.88;;;;;;;1.22;100.00;103886.72;5052324;28;20032;-83
2022/01/12 08:15:59;;;;;;;103.50;40.42;;;;;;;1.21;100.00;103901.25;5052547;28;20411;-83
2022/01/12 08:18:24;;;;;;;100.38;38.53;;;;;;;1.26;100.00;103904.09;5051319;28;20384;-83
2022/01/12 08:20:50;;;;;;;110.35;41.13;;;;;;;1.29;100.00;103912.00;5055736;28;20469;-83
2022/01/12 08:23:15;;;;;;;114.60;40.38;;;;;;;1.33;100.00;103913.97;5051408;28;20027;-85
2022/01/12 08:25:41;;;;;;;108.70;41.28;;;;;;;1.34;100.00;103919.22;5052648;28;20468;-83
2022/01/12 08:28:07;;;;;;;123.35;42.78;;;;;;;1.36;100.00;103916.75;5051818;28;20035;-84
2022/01/12 08:30:34;;;;;;;131.88;41.60;;;;;;;1.36;100.00;103915.06;5051052;28;20032;-84
2022/01/12 08:33:00;;;;;;;135.90;43.35;;;;;;;1.41;100.00;103925.66;5051472;28;20032;-85
2022/01/12 08:35:27;;;;;;;123.95;43.45;;;;;;;1.39;100.00;103914.38;5051950;28;20021;-84
2022/01/12 08:37:53;;;;;;;163.48;44.15;;;;;;;1.40;100.00;103919.59;5051411;28;20048;-84
2022/01/12 08:40:19;;;;;;;147.02;44.75;;;;;;;1.43;100.00;103918.91;5050488;28;20063;-83
2022/01/12 08:42:44;;;;;;;131.25;43.45;;;;;;;1.45;100.00;103919.00;5051629;28;20037;-84
2022/01/12 08:45:11;;;;;;;148.55;44.80;;;;;;;1.47;100.00;103910.63;5051853;28;20036;-83
2022/01/12 08:47:36;;;;;;;130.75;42.97;;;;;;;1.53;100.00;103920.38;5051220;28;20036;-83
2022/01/12 08:50:03;;;;;;;190.32;46.05;;;;;;;1.58;100.00;103924.13;5050830;28;20017;-84
2022/01/12 08:52:30;;;;;;;168.20;46.78;;;;;;;1.61;100.00;103924.31;5050854;28;20021;-83
2022/01/12 08:54:55;;;;;;;161.60;43.90;;;;;;;1.62;100.00;103916.69;5058580;28;20025;-84
2022/01/12 08:57:21;;;;;;;160.02;45.28;;;;;;;1.67;100.00;103921.22;5066261;28;20064;-83
2022/01/12 08:59:46;;;;;;;157.80;44.75;;;;;;;1.73;100.00;103924.19;5051949;28;20079;-83
2022/01/12 09:02:14;;;;;;;166.65;46.53;;;;;;;1.77;100.00;103927.06;5051636;28;20484;-83
2022/01/12 09:04:41;;;;;;;152.10;45.83;;;;;;;1.79;100.00;103934.84;5051307;28;20028;-84
2022/01/12 09:07:07;;;;;;;153.80;44.20;;;;;;;1.84;100.00;103930.91;5050942;28;20040;-83
2022/01/12 09:09:32;;;;;;;223.27;48.20;;;;;;;1.89;100.00;103926.91;5051705;28;20036;-83
2022/01/12 09:11:58;;;;;;;154.80;43.88;;;;;;;1.91;100.00;103945.03;5051502;28;20029;-84
2022/01/12 09:14:24;;;;;;;154.32;44.25;;;;;;;1.92;100.00;103944.22;5052270;28;20025;-84
2022/01/12 09:16:57;;;;;;;154.20;44.05;;;;;;;1.92;100.00;103955.41;5050925;28;20028;-84
2022/01/12 09:19:23;;;;;;;153.18;43.53;;;;;;;1.95;100.00;103963.31;5051986;28;20047;-84
2022/01/12 09:21:49;;;;;;;168.07;43.55;;;;;;;2.00;100.00;103967.06;5051076;28;20036;-83
2022/01/12 09:24:15;;;;;;;152.80;43.72;;;;;;;2.04;100.00;103968.16;5049801;28;20025;-83
2022/01/12 09:26:41;;;;;;;143.57;43.15;;;;;;;2.12;100.00;103961.78;5051425;28;20477;-84
2022/01/12 09:29:06;;;;;;;139.77;40.67;;;;;;;2.13;100.00;103957.53;5050200;28;20044;-84
2022/01/12 09:31:32;;;;;;;151.02;43.53;;;;;;;2.16;100.00;103973.13;5051208;28;20021;-84
2022/01/12 09:33:58;;;;;;;141.80;41.75;;;;;;;2.20;100.00;103977.69;5051329;28;20497;-84
2022/01/12 09:36:23;;;;;;;151.88;41.63;;;;;;;2.21;100.00;103984.63;5051771;28;20048;-84
2022/01/12 09:38:49;;;;;;;164.68;41.33;;;;;;;2.24;100.00;103982.25;5051129;28;20465;-84
2022/01/12 09:41:15;;;;;;;142.43;40.67;;;;;;;2.27;100.00;103988.47;5048913;28;20029;-84
2022/01/12 09:43:42;;;;;;;209.48;42.63;;;;;;;2.29;100.00;103986.00;5046188;28;20357;-83
2022/01/12 09:46:11;;;;;;;199.15;43.80;;;;;;;2.30;100.00;103983.50;5049784;28;20069;-83
2022/01/12 09:48:36;;;;;;;149.98;40.15;;;;;;;2.30;100.00;103975.78;5049919;28;20493;-83
2022/01/12 09:51:06;;;;;;;185.73;41.50;;;;;;;2.30;100.00;103977.47;5051246;28;20084;-83
2022/01/12 09:53:33;;;;;;;139.25;35.60;;;;;;;2.30;100.00;103982.63;5051147;28;20025;-83
2022/01/12 09:55:59;;;;;;;190.30;38.53;;;;;;;2.30;100.00;103983.50;5048461;28;20017;-84
2022/01/12 09:58:32;;;;;;;129.35;36.53;;;;;;;2.32;100.00;103984.50;5046431;28;20029;-83
2022/01/12 10:01:00;;;;;;;154.18;37.40;;;;;;;2.35;100.00;103981.19;5033581;28;20083;-84
2022/01/12 10:03:26;;;;;;;176.48;35.10;;;;;;;2.39;100.00;103987.41;5042642;28;20020;-84
2022/01/12 10:05:52;;;;;;;157.88;35.20;;;;;;;2.40;100.00;104000.41;5055111;28;20029;-84
2022/01/12 10:08:17;;;;;;;123.57;31.50;;;;;;;2.40;100.00;104017.53;5055054;28;20128;-84
2022/01/12 10:11:00;;;;;;;130.18;32.33;;;;;;;2.38;100.00;104020.00;5054497;28;20040;-84
2022/01/12 10:13:25;;;;;;;138.07;30.42;;;;;;;2.36;100.00;104015.59;5054590;28;20078;-84
2022/01/12 10:15:52;;;;;;;144.63;32.10;;;;;;;2.37;100.00;104020.81;5055479;28;20423;-83
2022/01/12 10:18:19;;;;;;;101.45;29.88;;;;;;;2.41;100.00;104021.88;5055266;28;20035;-84
2022/01/12 10:20:46;;;;;;;77.32;25.80;;;;;;;2.38;100.00;104014.84;5054547;28;20056;-83
2022/01/12 10:23:13;;;;;;;107.75;27.70;;;;;;;2.39;100.00;104018.31;5054931;28;20430;-84
2022/01/12 10:25:41;;;;;;;235.18;35.60;;;;;;;2.40;100.00;104020.13;5053549;28;20064;-83
2022/01/12 10:28:16;;;;;;;116.55;27.95;;;;;;;2.39;100.00;104010.59;5053573;28;20045;-84
2022/01/12 10:30:59;;;;;;;81.68;27.27;;;;;;;2.45;100.00;104009.31;5054964;28;20384;-84
2022/01/12 10:33:33;;;;;;;123.70;28.97;;;;;;;2.45;100.00;103993.84;5054710;28;20389;-84
2022/01/12 10:36:06;;;;;;;99.22;28.33;;;;;;;2.48;100.00;103996.59;5054616;28;20039;-85
2022/01/12 10:38:32;;;;;;;142.52;27.63;;;;;;;2.46;100.00;103993.03;5054664;28;20480;-84
2022/01/12 10:41:01;;;;;;;125.60;26.17;;;;;;;2.48;100.00;104004.31;5053609;28;20036;-84
2022/01/12 10:43:34;;;;;;;169.57;26.95;;;;;;;2.49;100.00;104005.22;5049620;28;20025;-84
2022/01/12 10:46:03;;;;;;;157.35;25.80;;;;;;;2.48;100.00;104011.16;5054498;28;20017;-84
2022/01/12 10:48:39;;;;;;;130.65;23.80;;;;;;;2.44;100.00;104007.50;5053859;28;20032;-84
2022/01/12 10:51:04;;;;;;;186.77;26.30;;;;;;;2.46;100.00;104012.75;5034299;28;20474;-84
2022/01/12 10:53:33;;;;;;;140.07;27.27;;;;;;;2.47;100.00;104011.97;5034488;28;20167;-84
2022/01/12 10:56:06;;;;;;;190.10;29.63;;;;;;;2.47;100.00;104015.41;5036613;28;20032;-84
2022/01/12 10:58:33;;;;;;;153.40;28.30;;;;;;;2.46;100.00;104007.63;5053161;28;20017;-84
2022/01/12 11:00:59;;;;;;;133.50;27.00;;;;;;;2.48;100.00;104019.75;5053852;28;20032;-84
2022/01/12 11:03:24;;;;;;;131.35;26.42;;;;;;;2.50;100.00;104019.88;5053938;28;20021;-84
2022/01/12 11:05:50;;;;;;;109.85;26.02;;;;;;;2.53;100.00;104022.63;5054291;28;20067;-84
2022/01/12 11:08:18;;;;;;;199.45;28.75;;;;;;;2.53;100.00;104028.66;5044064;28;20049;-84
2022/01/12 11:10:45;;;;;;;108.57;25.35;;;;;;;2.53;100.00;104018.38;5051814;28;20491;-85
2022/01/12 11:13:11;;;;;;;142.88;27.48;;;;;;;2.52;100.00;104010.56;5050791;28;20100;-83
2022/01/12 11:15:37;;;;;;;138.27;27.08;;;;;;;2.54;100.00;104008.94;5053002;28;20041;-83
2022/01/12 11:18:02;;;;;;;169.85;27.80;;;;;;;2.50;100.00;104018.19;5051397;28;20058;-83
2022/01/12 11:20:30;;;;;;;112.70;26.70;;;;;;;2.51;100.00;104014.78;5049953;28;20029;-83
2022/01/12 11:23:04;;;;;;;148.43;26.88;;;;;;;2.51;100.00;104012.22;5050363;28;20025;-83
2022/01/12 11:25:34;;;;;;;150.77;29.85;;;;;;;2.54;100.00;104008.94;5052360;28;20594;-83
2022/01/12 11:28:19;;;;;;;135.48;27.95;;;;;;;2.60;100.00;104026.47;5052252;28;20527;-83
2022/01/12 11:30:50;;;;;;;126.10;26.70;;;;;;;2.59;100.00;104028.16;5033497;28;20052;-84
2022/01/12 11:33:33;;;;;;;126.95;26.40;;;;;;;2.60;100.00;104031.63;5033534;28;20552;-84
2022/01/12 11:36:27;;;;;;;143.30;27.65;;;;;;;2.64;100.00;104025.84;5049887;28;20033;-83
2022/01/12 11:39:15;;;;;;;146.70;28.77;;;;;;;2.63;100.00;104027.53;5051625;28;20163;-83
2022/01/12 11:41:47;;;;;;;124.88;27.30;;;;;;;2.66;100.00;104034.56;5053056;28;20107;-83
2022/01/12 11:44:22;;;;;;;91.88;29.45;;;;;;;2.65;100.00;104023.38;5057684;28;20021;-83
2022/01/12 11:46:56;;;;;;;88.03;29.02;;;;;;;2.66;100.00;104032.00;5051103;28;20044;-84
2022/01/12 11:49:25;;;;;;;;;;;;;;;2.70;100.00;104024.53;5053723;28;20025;-85
2022/01/12 11:51:51;;;;;;;78.55;27.60;;;;;;;2.64;100.00;104010.38;5052968;28;20368;-85
2022/01/12 11:54:39;;;;;;;79.82;27.13;;;;;;;2.66;100.00;104003.66;5052112;28;20108;-85
2022/01/12 11:57:07;;;;;;;86.32;29.98;;;;;;;2.64;100.00;103993.25;5052073;28;20116;-84
2022/01/12 12:00:16;;;;;;;94.15;28.60;;;;;;;2.76;100.00;104006.84;5052635;28;20021;-85
2022/01/12 12:02:49;;;;;;;77.63;27.45;;;;;;;2.71;100.00;104009.94;5049887;28;20420;-84
2022/01/12 12:05:28;;;;;;;80.97;26.35;;;;;;;2.66;100.00;104009.69;5044284;28;20037;-84
2022/01/12 12:08:03;;;;;;;85.32;27.75;;;;;;;2.64;100.00;104021.56;5052426;28;20052;-85
2022/01/12 12:10:34;;;;;;;84.50;28.73;;;;;;;2.66;100.00;104017.41;5051815;28;20484;-84
2022/01/12 12:13:00;;;;;;;76.00;26.88;;;;;;;2.73;100.00;104018.66;5052142;28;20492;-85
2022/01/12 12:15:26;;;;;;;79.43;28.42;;;;;;;2.72;100.00;104015.22;5051681;28;20021;-84
2022/01/12 12:17:54;;;;;;;79.28;27.25;;;;;;;2.73;100.00;104024.72;5051740;28;20044;-85
2022/01/12 12:20:23;;;;;;;85.63;29.33;;;;;;;2.75;100.00;104017.97;5052055;28;20472;-84
2022/01/12 12:22:49;;;;;;;87.18;29.40;;;;;;;2.74;100.00;104018.75;5052080;28;20036;-84
2022/01/12 12:25:27;;;;;;;79.28;26.88;;;;;;;2.72;100.00;104025.53;5049474;28;20381;-85